Aérodrome :
LOGIN :

S'inscrire | Disclaimer

   EN    FR    IT 

 










Légende :    VFR   VFR Marginal   IFR   IFR Intensif   IFR Très Intensif
Visi : 
Plafond : 
>= 8 km
>= 3000ft
5 à 8 km
1000 à 3000 ft
1500m à 5 km
500 à 1000 ft
800 à 1500m
200 à 500 ft
< 800m
< 200 ft
Symboles :   Orages  Brouillard  Fortes neiges  Fortes précipitations  Vent > 20 kt
SIGMETs :   Divers  Orages  Givrage  Turbulence  Onde Orograph.  Cendres Volcan.







- Altitude de l'aérodrome : 18 ft


LIPC - Cervia AFB Ravenna

DERNIER METAR :
  • 301155Z 08006KT 9999 FEW040 16/06 Q1015

METARs EXPIRÉS :
  • 301055Z 08006KT 9999 FEW040 16/08 Q1016 RMK FEW VIS MIN 9999 WIND THR11 05004KT WIND THR29 05006KT BLU
  • 300955Z 02005KT 9999 FEW030 15/06 Q1016 RMK FEW VIS MIN 9999 WIND THR11 06002KT WIND THR29 06006KT BLU

TAF TAF LIPC
Valide du 30 à 12h jusqu'au 30 à 21h UTC


301100Z 3012/3021 04007KT CAVOK
Pas de NOTAMs connus pour ce terrain.



MET'MAP, la Météo Aéronautique d'un coup d'oeil ! - Copyright ORBIFLY Décembre 2007 - Disclaimer

ORBIFLY MET'MAP TEAM :

Programmation & Développement : Alexandra Zaïnal
Conception & Développement : Baudouin d'Aumeries
Co-Programmation & Développement : Marc-Olivier Méhu
Soutien technique & logistique : Manuel Goepfert

Contact : metmap@orbifly.com




SOURCES & CREDITS :

   NOAA